Time;durP1;ratioP1;P1;durP2;ratioP2;P2;SDS_P1;SDS_P2;PMS_P1;PMS_P2;Temp;Humidity;BMP_temperature;BMP_pressure;BME280_temperature;BME280_humidity;BME280_pressure;Samples;Min_cycle;Max_cycle;Signal;HPM_P1;HPM_P2
2022/07/03 00:00:33;;;;;;;;;;;26.20;50.70;;;;;;1596940;74;667;-68
2022/07/03 00:02:35;;;;;;;;;;;26.10;50.70;;;;;;1592476;73;678;-69
2022/07/03 00:04:37;;;;;;;;;;;26.10;50.80;;;;;;1591044;74;731;-68
2022/07/03 00:06:39;;;;;;;;;;;26.10;50.90;;;;;;1592493;73;1171;-68
2022/07/03 00:08:41;;;;;;;;;;;26.10;50.80;;;;;;1589807;74;743;-69
2022/07/03 00:10:43;;;;;;;;;;;26.10;50.90;;;;;;1595395;73;764;-68
2022/07/03 00:12:45;;;;;;;;;;;26.10;50.90;;;;;;1598350;74;1941;-70
2022/07/03 00:14:47;;;;;;;;;;;26.10;51.00;;;;;;1589819;73;745;-68
2022/07/03 00:16:49;;;;;;;;;;;26.10;51.00;;;;;;1587034;73;1110;-69
2022/07/03 00:18:51;;;;;;;;;;;26.10;51.00;;;;;;1594172;73;660;-68
2022/07/03 00:20:57;;;;;;;;;;;26.10;51.00;;;;;;1595946;73;1560;-68
2022/07/03 00:22:59;;;;;;;;;;;26.10;51.10;;;;;;1585669;73;1878;-68
2022/07/03 00:25:05;;;;;;;;;;;26.10;51.10;;;;;;1587638;73;727;-66
2022/07/03 00:27:08;;;;;;;;;;;26.10;51.10;;;;;;1593888;73;1180;-67
2022/07/03 00:29:10;;;;;;;;;;;26.10;51.10;;;;;;1589611;73;805;-68
2022/07/03 00:31:11;;;;;;;;;;;26.10;51.30;;;;;;1593363;73;763;-68
2022/07/03 00:33:13;;;;;;;;;;;26.10;51.30;;;;;;1587624;73;1952;-68
2022/07/03 00:35:16;;;;;;;;;;;26.10;51.30;;;;;;1585900;74;656;-71
2022/07/03 00:37:18;;;;;;;;;;;26.10;51.30;;;;;;1589436;73;1150;-68
2022/07/03 00:39:20;;;;;;;;;;;26.10;51.30;;;;;;1585490;73;659;-68
2022/07/03 00:41:26;;;;;;;;;;;26.10;51.30;;;;;;1598552;73;804;-68
2022/07/03 00:43:28;;;;;;;;;;;26.10;51.40;;;;;;1585170;73;658;-68
2022/07/03 00:45:30;;;;;;;;;;;26.10;51.40;;;;;;1597202;73;703;-70
2022/07/03 00:47:31;;;;;;;;;;;26.10;51.30;;;;;;1593194;73;1129;-70
2022/07/03 00:49:34;;;;;;;;;;;26.10;51.40;;;;;;1570630;74;1206;-70
2022/07/03 00:51:36;;;;;;;;;;;26.10;51.40;;;;;;1591871;73;655;-70
2022/07/03 00:53:38;;;;;;;;;;;26.10;51.30;;;;;;1573298;74;1910;-69
2022/07/03 00:55:43;;;;;;;;;;;26.10;51.40;;;;;;1592674;73;719;-69
2022/07/03 00:57:46;;;;;;;;;;;26.10;51.50;;;;;;1578758;74;1118;-70
2022/07/03 00:59:47;;;;;;;;;;;26.10;51.50;;;;;;1577767;73;741;-68
2022/07/03 01:01:50;;;;;;;;;;;26.10;51.60;;;;;;1598731;74;742;-68
2022/07/03 01:03:56;;;;;;;;;;;26.00;51.60;;;;;;1596653;73;681;-68
2022/07/03 01:06:00;;;;;;;;;;;26.00;51.60;;;;;;1582677;73;1789;-69
2022/07/03 01:08:06;;;;;;;;;;;26.10;51.70;;;;;;1593810;74;1119;-70
2022/07/03 01:10:10;;;;;;;;;;;26.10;51.60;;;;;;1596989;73;2053;-68
2022/07/03 01:12:18;;;;;;;;;;;26.10;51.70;;;;;;1592836;73;1930;-70
2022/07/03 01:14:27;;;;;;;;;;;26.10;51.70;;;;;;1587305;74;1663;-69
2022/07/03 01:16:33;;;;;;;;;;;26.10;51.60;;;;;;1591818;73;1151;-67
2022/07/03 01:18:36;;;;;;;;;;;26.10;51.70;;;;;;1585578;73;1588;-69
2022/07/03 01:20:39;;;;;;;;;;;26.10;51.70;;;;;;1591865;73;668;-70
2022/07/03 01:22:44;;;;;;;;;;;26.00;51.80;;;;;;1590020;73;663;-69
2022/07/03 01:24:56;;;;;;;;;;;26.00;51.70;;;;;;1582107;73;715;-68
2022/07/03 01:27:00;;;;;;;;;;;26.10;51.70;;;;;;1584690;71;229992;-63
2022/07/03 01:29:04;;;;;;;;;;;26.10;51.70;;;;;;1563938;73;657;-64
2022/07/03 01:31:06;;;;;;;;;;;26.10;51.60;;;;;;1580088;75;1686;-67
2022/07/03 01:33:12;;;;;;;;;;;26.00;51.60;;;;;;1584545;73;1927;-66
2022/07/03 01:35:15;;;;;;;;;;;26.10;51.50;;;;;;1573949;73;654;-67
2022/07/03 01:37:17;;;;;;;;;;;26.00;51.50;;;;;;1592184;74;1208;-67
2022/07/03 01:39:19;;;;;;;;;;;26.00;51.50;;;;;;1558399;75;553;-67
2022/07/03 01:41:21;;;;;;;;;;;26.10;51.50;;;;;;1585751;74;667;-66
2022/07/03 01:43:28;;;;;;;;;;;26.00;51.60;;;;;;1581722;74;659;-67
2022/07/03 01:45:31;;;;;;;;;;;26.10;51.50;;;;;;1586747;74;928;-66
2022/07/03 01:47:33;;;;;;;;;;;26.10;51.50;;;;;;1585282;74;1138;-66
2022/07/03 01:49:35;;;;;;;;;;;26.10;51.50;;;;;;1587469;74;623;-65
2022/07/03 01:51:37;;;;;;;;;;;26.10;51.60;;;;;;1579140;74;837;-68
2022/07/03 01:53:41;;;;;;;;;;;26.10;51.60;;;;;;1588684;74;1941;-66
2022/07/03 01:55:43;;;;;;;;;;;26.10;51.60;;;;;;1581407;74;693;-67
2022/07/03 01:57:48;;;;;;;;;;;26.10;51.50;;;;;;1595871;73;1086;-66
2022/07/03 01:59:50;;;;;;;;;;;26.20;51.50;;;;;;1583371;74;643;-66
2022/07/03 02:01:53;;;;;;;;;;;26.10;51.50;;;;;;1594384;74;721;-67
2022/07/03 02:03:59;;;;;;;;;;;26.20;51.60;;;;;;1583633;74;657;-66
2022/07/03 02:06:09;;;;;;;;;;;26.10;51.60;;;;;;1578035;74;676;-67
2022/07/03 02:08:21;;;;;;;;;;;26.10;51.50;;;;;;1587775;74;1127;-65
2022/07/03 02:10:25;;;;;;;;;;;26.10;51.40;;;;;;1582845;74;653;-66
2022/07/03 02:12:27;;;;;;;;;;;26.10;51.40;;;;;;1589482;74;1896;-66
2022/07/03 02:14:32;;;;;;;;;;;26.10;51.40;;;;;;1592278;74;1973;-67
2022/07/03 02:16:51;;;;;;;;;;;26.10;51.40;;;;;;1591810;74;680;-68
2022/07/03 02:18:57;;;;;;;;;;;26.10;51.40;;;;;;1571370;74;656;-68
2022/07/03 02:21:04;;;;;;;;;;;26.10;51.40;;;;;;1583855;74;1469;-68
2022/07/03 02:23:06;;;;;;;;;;;26.10;51.30;;;;;;1577005;74;648;-67
2022/07/03 02:25:08;;;;;;;;;;;26.10;51.30;;;;;;1565498;74;596;-67
2022/07/03 02:27:12;;;;;;;;;;;26.10;51.40;;;;;;1575683;74;1131;-67
2022/07/03 02:29:15;;;;;;;;;;;26.10;51.30;;;;;;1587476;74;765;-67
2022/07/03 02:31:17;;;;;;;;;;;26.10;51.40;;;;;;1574365;74;655;-67
2022/07/03 02:33:20;;;;;;;;;;;26.10;51.30;;;;;;1596531;74;1970;-67
2022/07/03 02:35:32;;;;;;;;;;;26.10;51.30;;;;;;1574609;74;634;-68
2022/07/03 02:37:35;;;;;;;;;;;26.20;51.30;;;;;;1584154;74;1181;-65
2022/07/03 02:39:51;;;;;;;;;;;26.10;51.10;;;;;;1589539;74;649;-67
2022/07/03 02:42:05;;;;;;;;;;;26.10;51.30;;;;;;1574406;74;1001;-68
2022/07/03 02:44:24;;;;;;;;;;;26.10;51.20;;;;;;1582043;74;676;-67
2022/07/03 02:46:49;;;;;;;;;;;26.00;51.20;;;;;;1587730;74;657;-67
2022/07/03 02:48:51;;;;;;;;;;;26.00;51.20;;;;;;1579543;74;651;-66
2022/07/03 02:50:53;;;;;;;;;;;26.00;51.20;;;;;;1589795;74;716;-65
2022/07/03 02:52:57;;;;;;;;;;;26.00;51.10;;;;;;1582877;74;1914;-66
2022/07/03 02:55:00;;;;;;;;;;;26.00;51.00;;;;;;1594127;74;672;-66
2022/07/03 02:57:06;;;;;;;;;;;26.10;51.00;;;;;;1583003;74;1483;-67
2022/07/03 02:59:27;;;;;;;;;;;26.10;50.90;;;;;;1589353;73;661;-66
2022/07/03 03:01:36;;;;;;;;;;;26.00;51.00;;;;;;1578382;74;730;-66
2022/07/03 03:03:38;;;;;;;;;;;26.00;50.90;;;;;;1583648;74;632;-65
2022/07/03 03:05:47;;;;;;;;;;;26.10;50.80;;;;;;1580203;74;672;-65
2022/07/03 03:07:59;;;;;;;;;;;26.10;50.70;;;;;;1583541;74;1113;-67
2022/07/03 03:10:01;;;;;;;;;;;26.10;50.70;;;;;;1571695;74;1686;-67
2022/07/03 03:12:03;;;;;;;;;;;26.10;50.70;;;;;;1575956;74;717;-67
2022/07/03 03:14:06;;;;;;;;;;;26.10;50.70;;;;;;1583563;74;1927;-66
2022/07/03 03:16:08;;;;;;;;;;;26.10;50.70;;;;;;1578303;74;746;-66
2022/07/03 03:18:12;;;;;;;;;;;26.00;50.60;;;;;;1593543;74;1141;-65
2022/07/03 03:20:16;;;;;;;;;;;26.10;50.70;;;;;;1573011;74;601;-65
2022/07/03 03:22:28;;;;;;;;;;;26.10;50.60;;;;;;1578348;74;659;-66
2022/07/03 03:24:30;;;;;;;;;;;26.10;50.60;;;;;;1585480;74;675;-69
2022/07/03 03:26:32;;;;;;;;;;;26.10;50.50;;;;;;1576365;74;666;-68
2022/07/03 03:28:34;;;;;;;;;;;26.10;50.60;;;;;;1581772;74;1124;-68
2022/07/03 03:30:36;;;;;;;;;;;26.10;50.60;;;;;;1582880;74;550;-67
2022/07/03 03:32:38;;;;;;;;;;;26.00;50.70;;;;;;1580590;74;667;-67
2022/07/03 03:34:40;;;;;;;;;;;26.10;50.70;;;;;;1592729;74;1922;-66
2022/07/03 03:36:42;;;;;;;;;;;26.20;50.60;;;;;;1574104;74;667;-68
2022/07/03 03:38:44;;;;;;;;;;;26.00;50.70;;;;;;1589128;74;1228;-67
2022/07/03 03:40:46;;;;;;;;;;;26.10;50.70;;;;;;1584578;73;653;-67
2022/07/03 03:42:48;;;;;;;;;;;26.10;50.70;;;;;;1597392;74;663;-67
2022/07/03 03:44:50;;;;;;;;;;;26.10;50.60;;;;;;1579081;73;699;-69
2022/07/03 03:46:52;;;;;;;;;;;26.10;50.60;;;;;;1591652;74;1088;-65
2022/07/03 03:48:53;;;;;;;;;;;26.10;50.60;;;;;;1584613;73;718;-66
2022/07/03 03:50:57;;;;;;;;;;;26.20;50.50;;;;;;1586939;74;643;-67
2022/07/03 03:53:00;;;;;;;;;;;26.20;50.50;;;;;;1581854;73;1682;-67
2022/07/03 03:55:02;;;;;;;;;;;26.10;50.60;;;;;;1593624;74;1884;-66
2022/07/03 03:57:17;;;;;;;;;;;26.20;50.50;;;;;;1585469;74;1151;-66
2022/07/03 03:59:19;;;;;;;;;;;26.00;50.60;;;;;;1582173;74;2040;-67
2022/07/03 04:01:21;;;;;;;;;;;26.00;50.60;;;;;;1585037;74;675;-67
2022/07/03 04:03:24;;;;;;;;;;;26.00;50.70;;;;;;1585959;74;625;-67
2022/07/03 04:05:25;;;;;;;;;;;26.10;50.70;;;;;;1577254;74;592;-66
2022/07/03 04:07:27;;;;;;;;;;;26.10;50.60;;;;;;1572340;74;1582;-67
2022/07/03 04:09:29;;;;;;;;;;;26.10;50.60;;;;;;1570980;74;704;-65
2022/07/03 04:11:31;;;;;;;;;;;26.10;50.60;;;;;;1564751;74;654;-66
2022/07/03 04:13:33;;;;;;;;;;;26.00;50.60;;;;;;1567863;74;1935;-66
2022/07/03 04:15:35;;;;;;;;;;;26.10;50.60;;;;;;1570820;74;730;-67
2022/07/03 04:17:37;;;;;;;;;;;26.10;50.50;;;;;;1570845;74;1151;-67
2022/07/03 04:19:38;;;;;;;;;;;26.10;50.40;;;;;;1567104;74;614;-67
2022/07/03 04:21:40;;;;;;;;;;;26.10;50.50;;;;;;1575272;74;738;-65
2022/07/03 04:23:42;;;;;;;;;;;26.10;50.50;;;;;;1564171;74;636;-63
2022/07/03 04:25:44;;;;;;;;;;;26.00;50.50;;;;;;1566888;74;677;-65
2022/07/03 04:27:46;;;;;;;;;;;26.10;50.50;;;;;;1570337;74;1138;-65
2022/07/03 04:29:48;;;;;;;;;;;26.10;50.40;;;;;;1573591;74;732;-68
2022/07/03 04:31:50;;;;;;;;;;;26.00;50.50;;;;;;1577353;74;615;-66
2022/07/03 04:33:52;;;;;;;;;;;26.00;50.50;;;;;;1573744;74;1963;-66
2022/07/03 04:35:53;;;;;;;;;;;26.00;50.50;;;;;;1573152;74;682;-67
2022/07/03 04:37:55;;;;;;;;;;;26.10;50.50;;;;;;1576526;74;1175;-64
2022/07/03 04:39:57;;;;;;;;;;;26.10;50.50;;;;;;1569041;74;843;-65
2022/07/03 04:41:59;;;;;;;;;;;26.10;50.60;;;;;;1571368;74;642;-66
2022/07/03 04:44:01;;;;;;;;;;;26.00;50.50;;;;;;1572315;74;598;-67
2022/07/03 04:46:03;;;;;;;;;;;26.00;50.50;;;;;;1569037;74;660;-66
2022/07/03 04:48:05;;;;;;;;;;;26.00;50.50;;;;;;1573019;74;1158;-65
2022/07/03 04:50:07;;;;;;;;;;;26.10;50.50;;;;;;1572012;74;656;-66
2022/07/03 04:52:09;;;;;;;;;;;26.00;50.60;;;;;;1570370;74;688;-66
2022/07/03 04:54:11;;;;;;;;;;;26.00;50.60;;;;;;1576578;74;1920;-68
2022/07/03 04:56:13;;;;;;;;;;;26.10;50.70;;;;;;1568681;74;698;-66
2022/07/03 04:58:15;;;;;;;;;;;26.00;50.50;;;;;;1580003;74;1135;-66
2022/07/03 05:00:17;;;;;;;;;;;26.10;50.70;;;;;;1564209;74;694;-67
2022/07/03 05:02:18;;;;;;;;;;;26.10;50.60;;;;;;1577124;74;1379;-64
2022/07/03 05:04:20;;;;;;;;;;;26.10;50.50;;;;;;1567431;74;682;-66
2022/07/03 05:06:22;;;;;;;;;;;26.00;50.50;;;;;;1574240;74;705;-66
2022/07/03 05:08:24;;;;;;;;;;;26.10;50.50;;;;;;1577052;74;1147;-66
2022/07/03 05:10:26;;;;;;;;;;;26.20;50.50;;;;;;1567780;74;748;-68
2022/07/03 05:12:28;;;;;;;;;;;26.10;50.50;;;;;;1570994;74;742;-69
2022/07/03 05:14:30;;;;;;;;;;;26.10;50.50;;;;;;1571103;74;1944;-66
2022/07/03 05:16:32;;;;;;;;;;;26.10;50.50;;;;;;1573291;74;707;-68
2022/07/03 05:18:35;;;;;;;;;;;26.10;50.50;;;;;;1559175;74;1123;-68
2022/07/03 05:20:37;;;;;;;;;;;26.20;50.50;;;;;;1572714;74;605;-70
2022/07/03 05:22:38;;;;;;;;;;;26.30;50.30;;;;;;1559041;74;684;-71
2022/07/03 05:24:40;;;;;;;;;;;26.20;50.30;;;;;;1571896;73;738;-71
2022/07/03 05:26:42;;;;;;;;;;;26.20;50.40;;;;;;1572302;74;676;-63
2022/07/03 05:28:44;;;;;;;;;;;26.20;50.30;;;;;;1597152;74;1141;-67
2022/07/03 05:30:46;;;;;;;;;;;26.30;50.30;;;;;;1556069;74;796;-65
2022/07/03 05:32:48;;;;;;;;;;;26.30;50.20;;;;;;1574140;74;685;-67
2022/07/03 05:34:50;;;;;;;;;;;26.30;50.20;;;;;;1567421;74;1934;-66
2022/07/03 05:36:52;;;;;;;;;;;26.40;49.90;;;;;;1580498;73;1199;-67
2022/07/03 05:41:14;;;;;;;;;;;26.40;49.50;;;;;;1583163;74;1651;-66
2022/07/03 05:43:15;;;;;;;;;;;26.40;49.30;;;;;;1566437;74;634;-67
2022/07/03 05:45:17;;;;;;;;;;;26.40;49.10;;;;;;1572957;74;693;-67
2022/07/03 05:47:19;;;;;;;;;;;26.50;48.80;;;;;;1572129;74;1161;-66
2022/07/03 05:49:21;;;;;;;;;;;26.50;48.60;;;;;;1562124;74;661;-67
2022/07/03 05:51:23;;;;;;;;;;;26.50;48.50;;;;;;1570497;74;657;-67
2022/07/03 05:53:25;;;;;;;;;;;26.60;48.40;;;;;;1566009;74;670;-66
2022/07/03 05:55:27;;;;;;;;;;;26.60;48.10;;;;;;1573637;74;1922;-67
2022/07/03 05:57:28;;;;;;;;;;;26.70;48.00;;;;;;1578487;74;1139;-67
2022/07/03 05:59:30;;;;;;;;;;;26.70;47.90;;;;;;1579495;74;1479;-67
2022/07/03 06:01:32;;;;;;;;;;;26.70;47.60;;;;;;1565453;74;669;-67
2022/07/03 06:03:34;;;;;;;;;;;26.80;47.60;;;;;;1559491;74;695;-67
2022/07/03 06:05:36;;;;;;;;;;;26.80;47.30;;;;;;1557128;74;727;-66
2022/07/03 06:07:38;;;;;;;;;;;26.80;47.30;;;;;;1565388;74;1140;-66
2022/07/03 06:09:40;;;;;;;;;;;26.90;47.10;;;;;;1579999;73;743;-62
2022/07/03 06:11:42;;;;;;;;;;;26.90;46.80;;;;;;1564387;74;694;-64
2022/07/03 06:13:44;;;;;;;;;;;27.10;47.30;;;;;;1574972;74;728;-67
2022/07/03 06:15:46;;;;;;;;;;;27.20;47.10;;;;;;1573236;74;1947;-67
2022/07/03 06:17:48;;;;;;;;;;;27.20;46.90;;;;;;1569956;74;1133;-67
2022/07/03 06:19:50;;;;;;;;;;;27.20;46.80;;;;;;1570396;74;763;-67
2022/07/03 06:21:52;;;;;;;;;;;27.20;46.70;;;;;;1572534;74;703;-67
2022/07/03 06:23:54;;;;;;;;;;;27.20;46.70;;;;;;1571618;74;660;-68
2022/07/03 06:25:55;;;;;;;;;;;27.20;46.50;;;;;;1575039;74;663;-66
2022/07/03 06:27:57;;;;;;;;;;;27.20;46.50;;;;;;1567980;74;1181;-66
2022/07/03 06:29:59;;;;;;;;;;;27.30;46.40;;;;;;1575514;74;813;-66
2022/07/03 06:32:01;;;;;;;;;;;27.30;46.30;;;;;;1564895;74;589;-66
2022/07/03 06:34:03;;;;;;;;;;;27.40;46.20;;;;;;1568082;74;810;-67
2022/07/03 06:36:05;;;;;;;;;;;27.40;46.20;;;;;;1574043;74;1942;-67
2022/07/03 06:38:07;;;;;;;;;;;27.50;46.10;;;;;;1573586;74;1205;-67
2022/07/03 06:40:09;;;;;;;;;;;27.50;45.90;;;;;;1577625;74;706;-67
2022/07/03 06:42:11;;;;;;;;;;;27.60;45.80;;;;;;1568300;74;657;-67
2022/07/03 06:44:13;;;;;;;;;;;27.50;45.60;;;;;;1589489;74;692;-68
2022/07/03 06:46:15;;;;;;;;;;;27.50;45.60;;;;;;1585163;74;673;-67
2022/07/03 06:48:17;;;;;;;;;;;27.50;45.60;;;;;;1575303;74;1149;-66
2022/07/03 06:50:19;;;;;;;;;;;27.50;45.40;;;;;;1576809;74;675;-66
2022/07/03 06:52:21;;;;;;;;;;;27.50;45.20;;;;;;1570337;74;688;-67
2022/07/03 06:54:22;;;;;;;;;;;27.50;45.30;;;;;;1573826;74;1947;-67
2022/07/03 06:56:24;;;;;;;;;;;27.50;45.10;;;;;;1563622;74;1543;-67
2022/07/03 06:58:26;;;;;;;;;;;27.50;45.10;;;;;;1574403;74;1129;-67
2022/07/03 07:00:28;;;;;;;;;;;27.50;45.10;;;;;;1572960;74;704;-68
2022/07/03 07:02:30;;;;;;;;;;;27.60;45.00;;;;;;1575125;74;737;-66
2022/07/03 07:04:32;;;;;;;;;;;27.60;44.90;;;;;;1561258;74;774;-66
2022/07/03 07:06:34;;;;;;;;;;;27.70;44.90;;;;;;1573222;74;695;-67
2022/07/03 07:08:36;;;;;;;;;;;27.60;44.80;;;;;;1581793;74;1093;-67
2022/07/03 07:10:37;;;;;;;;;;;27.60;44.70;;;;;;1567262;74;638;-66
2022/07/03 07:12:39;;;;;;;;;;;27.70;44.60;;;;;;1583897;74;775;-67
2022/07/03 07:14:41;;;;;;;;;;;27.70;44.40;;;;;;1570338;74;1938;-67
2022/07/03 07:16:43;;;;;;;;;;;27.60;44.30;;;;;;1582385;74;744;-66
2022/07/03 07:18:45;;;;;;;;;;;27.60;44.30;;;;;;1578151;74;1091;-66
2022/07/03 07:20:47;;;;;;;;;;;27.60;44.10;;;;;;1577481;74;679;-66
2022/07/03 07:22:49;;;;;;;;;;;27.50;44.10;;;;;;1570994;74;672;-66
2022/07/03 07:24:51;;;;;;;;;;;27.50;43.90;;;;;;1589095;74;666;-67
2022/07/03 07:26:54;;;;;;;;;;;27.50;43.90;;;;;;1575207;74;1176;-66
2022/07/03 07:28:55;;;;;;;;;;;27.50;43.80;;;;;;1589437;72;3051;-63
2022/07/03 07:30:57;;;;;;;;;;;27.50;43.60;;;;;;1598992;72;802;-63
2022/07/03 07:32:59;;;;;;;;;;;27.50;43.60;;;;;;1610437;72;813;-64
2022/07/03 07:35:01;;;;;;;;;;;27.50;43.70;;;;;;1599710;72;1927;-64
2022/07/03 07:37:03;;;;;;;;;;;27.60;43.60;;;;;;1599389;72;771;-63
2022/07/03 07:39:05;;;;;;;;;;;27.50;43.50;;;;;;1598982;72;1149;-67
2022/07/03 07:41:07;;;;;;;;;;;27.60;43.30;;;;;;1592746;72;993;-63
2022/07/03 07:43:09;;;;;;;;;;;27.60;43.30;;;;;;1611872;72;675;-64
2022/07/03 07:45:11;;;;;;;;;;;27.70;43.30;;;;;;1611852;72;648;-63
2022/07/03 07:47:13;;;;;;;;;;;27.60;43.30;;;;;;1618592;72;760;-64
2022/07/03 07:49:14;;;;;;;;;;;27.60;43.20;;;;;;1585189;72;1139;-63
2022/07/03 07:51:16;;;;;;;;;;;27.60;43.10;;;;;;1598863;72;1570;-63
2022/07/03 07:53:18;;;;;;;;;;;27.60;43.10;;;;;;1596569;72;861;-64
2022/07/03 07:55:20;;;;;;;;;;;27.60;43.20;;;;;;1616391;72;1936;-62
2022/07/03 07:57:22;;;;;;;;;;;27.60;43.00;;;;;;1603874;72;656;-62
2022/07/03 07:59:24;;;;;;;;;;;27.50;42.80;;;;;;1608913;72;1108;-63
2022/07/03 08:06:06;;;;;;;;;;;27.60;42.80;;;;;;1588856;72;1639;-63
2022/07/03 08:08:08;;;;;;;;;;;27.50;42.60;;;;;;1591766;72;1068;-63
2022/07/03 08:10:10;;;;;;;;;;;27.60;42.50;;;;;;1595020;72;712;-63
2022/07/03 08:12:12;;;;;;;;;;;27.50;42.60;;;;;;1604002;72;669;-64
2022/07/03 08:14:14;;;;;;;;;;;27.50;42.50;;;;;;1608757;72;697;-65
2022/07/03 08:16:17;;;;;;;;;;;27.50;42.40;;;;;;1598247;72;1930;-62
2022/07/03 08:18:19;;;;;;;;;;;27.50;42.40;;;;;;1616960;72;1152;-63
2022/07/03 08:20:21;;;;;;;;;;;27.50;42.30;;;;;;1597624;72;821;-63
2022/07/03 08:22:23;;;;;;;;;;;27.40;42.10;;;;;;1598358;72;750;-63
2022/07/03 08:24:24;;;;;;;;;;;27.50;42.30;;;;;;1615472;72;680;-66
2022/07/03 08:26:26;;;;;;;;;;;27.50;42.20;;;;;;1608868;72;722;-62
2022/07/03 08:28:28;;;;;;;;;;;27.50;42.20;;;;;;1601455;72;1138;-62
2022/07/03 08:30:30;;;;;;;;;;;27.40;42.10;;;;;;1597392;72;750;-62
2022/07/03 08:32:32;;;;;;;;;;;27.50;42.00;;;;;;1597096;72;807;-61
2022/07/03 08:34:34;;;;;;;;;;;27.60;42.00;;;;;;1602857;72;777;-63
2022/07/03 08:36:36;;;;;;;;;;;27.50;41.90;;;;;;1606702;72;1938;-63
2022/07/03 08:38:38;;;;;;;;;;;27.60;41.80;;;;;;1608123;72;1128;-65
2022/07/03 08:40:40;;;;;;;;;;;27.60;41.90;;;;;;1601051;72;674;-62
2022/07/03 08:42:43;;;;;;;;;;;27.60;41.80;;;;;;1622506;72;682;-65
2022/07/03 08:44:45;;;;;;;;;;;27.50;41.80;;;;;;1594588;72;742;-63
2022/07/03 08:46:47;;;;;;;;;;;27.50;41.80;;;;;;1612828;72;736;-64
2022/07/03 08:48:48;;;;;;;;;;;27.50;41.50;;;;;;1598928;72;1549;-67
2022/07/03 08:50:51;;;;;;;;;;;27.50;41.40;;;;;;1601529;72;703;-63
2022/07/03 08:52:53;;;;;;;;;;;27.50;41.40;;;;;;1596652;72;761;-65
2022/07/03 08:54:55;;;;;;;;;;;27.50;41.50;;;;;;1599101;72;691;-63
2022/07/03 08:56:57;;;;;;;;;;;27.50;41.40;;;;;;1614789;72;1926;-63
2022/07/03 08:58:58;;;;;;;;;;;27.50;41.50;;;;;;1605432;72;1127;-63
2022/07/03 09:01:00;;;;;;;;;;;27.40;41.40;;;;;;1611411;72;702;-62
2022/07/03 09:03:04;;;;;;;;;;;27.40;41.30;;;;;;1602859;72;812;-63
2022/07/03 09:05:06;;;;;;;;;;;27.40;41.50;;;;;;1603925;72;648;-63
2022/07/03 09:07:08;;;;;;;;;;;27.40;41.40;;;;;;1591907;72;644;-65
2022/07/03 09:09:10;;;;;;;;;;;27.40;41.60;;;;;;1608299;72;1128;-63
2022/07/03 09:11:12;;;;;;;;;;;27.50;41.50;;;;;;1606408;72;661;-63
2022/07/03 09:13:14;;;;;;;;;;;27.40;41.40;;;;;;1600876;72;776;-64
2022/07/03 09:15:15;;;;;;;;;;;27.50;41.40;;;;;;1588625;72;1946;-62
2022/07/03 09:17:17;;;;;;;;;;;27.40;41.30;;;;;;1603481;72;681;-64
2022/07/03 09:19:21;;;;;;;;;;;27.50;41.30;;;;;;1611070;72;1080;-64
2022/07/03 09:21:24;;;;;;;;;;;27.40;41.30;;;;;;1585370;72;1130;-66
2022/07/03 09:23:26;;;;;;;;;;;27.40;41.30;;;;;;1617835;72;703;-63
2022/07/03 09:25:28;;;;;;;;;;;27.40;41.20;;;;;;1601288;72;704;-63
2022/07/03 09:27:29;;;;;;;;;;;27.40;41.20;;;;;;1603333;72;1144;-65
2022/07/03 09:29:31;;;;;;;;;;;27.40;41.20;;;;;;1605680;72;800;-67
2022/07/03 09:31:33;;;;;;;;;;;27.40;41.10;;;;;;1605125;72;573;-63
2022/07/03 09:33:35;;;;;;;;;;;27.40;41.10;;;;;;1624917;72;928;-63
2022/07/03 09:35:37;;;;;;;;;;;27.40;41.30;;;;;;1592754;72;1927;-63
2022/07/03 09:37:39;;;;;;;;;;;27.40;41.20;;;;;;1613923;72;1198;-62
2022/07/03 09:39:41;;;;;;;;;;;27.30;41.30;;;;;;1603795;72;742;-64
2022/07/03 09:41:52;;;;;;;;;;;27.30;41.30;;;;;;1602582;72;692;-65
2022/07/03 09:43:54;;;;;;;;;;;27.40;41.40;;;;;;1601587;72;1516;-65
2022/07/03 09:46:01;;;;;;;;;;;27.40;40.40;;;;;;1607146;72;705;-63
2022/07/03 09:48:03;;;;;;;;;;;27.30;41.10;;;;;;1591941;72;1672;-66
2022/07/03 09:50:07;;;;;;;;;;;27.30;41.00;;;;;;1595935;72;754;-63
2022/07/03 09:52:08;;;;;;;;;;;27.40;40.90;;;;;;1612217;72;1704;-63
2022/07/03 09:54:10;;;;;;;;;;;27.30;40.70;;;;;;1604619;72;751;-65
2022/07/03 09:56:12;;;;;;;;;;;27.30;40.90;;;;;;1572179;74;1940;-63
2022/07/03 09:58:14;;;;;;;;;;;27.20;40.50;;;;;;1600065;72;1145;-63
2022/07/03 10:00:17;;;;;;;;;;;27.20;40.50;;;;;;1601557;72;689;-64
2022/07/03 10:02:18;;;;;;;;;;;27.10;40.20;;;;;;1605102;72;728;-63
2022/07/03 10:04:21;;;;;;;;;;;27.10;39.90;;;;;;1599048;72;682;-64
2022/07/03 10:06:23;;;;;;;;;;;27.10;39.90;;;;;;1618794;72;805;-64
2022/07/03 10:08:25;;;;;;;;;;;27.10;40.10;;;;;;1603453;72;1150;-64
2022/07/03 10:10:30;;;;;;;;;;;27.10;39.60;;;;;;1604288;72;689;-65
2022/07/03 10:12:32;;;;;;;;;;;27.10;40.00;;;;;;1590937;72;711;-65
2022/07/03 10:14:34;;;;;;;;;;;27.00;39.70;;;;;;1600358;72;1005;-63
2022/07/03 10:16:36;;;;;;;;;;;27.10;39.70;;;;;;1602377;72;1941;-64
2022/07/03 10:18:37;;;;;;;;;;;27.10;39.90;;;;;;1608365;72;1144;-64
2022/07/03 10:20:41;;;;;;;;;;;27.00;39.50;;;;;;1590727;72;709;-66
2022/07/03 10:22:42;;;;;;;;;;;27.10;39.40;;;;;;1600083;72;659;-62
2022/07/03 10:24:44;;;;;;;;;;;27.10;39.60;;;;;;1612553;72;728;-64
2022/07/03 10:26:47;;;;;;;;;;;27.00;39.30;;;;;;1585519;74;1266;-64
2022/07/03 10:28:49;;;;;;;;;;;27.00;39.60;;;;;;1603286;72;1140;-65
2022/07/03 10:30:51;;;;;;;;;;;27.10;39.80;;;;;;1603531;72;786;-64
2022/07/03 10:32:54;;;;;;;;;;;27.00;39.70;;;;;;1594314;72;727;-64
2022/07/03 10:34:56;;;;;;;;;;;27.00;39.70;;;;;;1592549;72;615;-68
2022/07/03 10:36:59;;;;;;;;;;;27.00;39.70;;;;;;1606925;72;1928;-62
2022/07/03 10:39:02;;;;;;;;;;;27.00;39.60;;;;;;1601743;72;1187;-62
2022/07/03 10:45:54;;;;;;;;;;;26.90;39.20;;;;;;1612095;72;1659;-64
2022/07/03 10:47:56;;;;;;;;;;;27.00;39.80;;;;;;1591007;72;1664;-62
2022/07/03 10:50:02;;;;;;;;;;;27.00;39.70;;;;;;1604685;72;768;-65
2022/07/03 10:52:04;;;;;;;;;;;27.00;39.20;;;;;;1593641;72;625;-62
2022/07/03 10:54:16;;;;;;;;;;;27.00;39.70;;;;;;1605019;72;680;-62
2022/07/03 10:56:19;;;;;;;;;;;27.00;39.40;;;;;;1590342;72;1947;-66
2022/07/03 10:58:21;;;;;;;;;;;27.00;39.70;;;;;;1604002;72;1159;-64
2022/07/03 11:00:23;;;;;;;;;;;27.00;39.40;;;;;;1611795;72;718;-64
2022/07/03 11:02:31;;;;;;;;;;;27.00;39.40;;;;;;1604553;72;684;-62
2022/07/03 11:04:31;;;;;;;;;;;27.00;39.30;;;;;;1597410;72;1557;-64
2022/07/03 11:06:48;;;;;;;;;;;27.00;39.10;;;;;;1597196;72;1352;-64
2022/07/03 11:09:03;;;;;;;;;;;27.00;39.20;;;;;;1601719;72;1089;-63
2022/07/03 11:13:21;;;;;;;;;;;27.00;39.10;;;;;;1505574;73;1070;-62
2022/07/03 11:15:26;;;;;;;;;;;26.90;38.40;;;;;;1598936;72;740;-63
2022/07/03 11:17:28;;;;;;;;;;;27.00;39.20;;;;;;1611527;72;1917;-66
2022/07/03 11:19:30;;;;;;;;;;;26.90;38.50;;;;;;1594539;72;671;-64
2022/07/03 11:21:33;;;;;;;;;;;26.90;38.40;;;;;;1600143;72;678;-66
2022/07/03 11:23:37;;;;;;;;;;;26.90;37.80;;;;;;1609321;72;711;-62
2022/07/03 11:25:45;;;;;;;;;;;26.90;38.50;;;;;;1599624;72;2027;-67
2022/07/03 11:27:47;;;;;;;;;;;26.90;37.30;;;;;;1602021;72;1091;-63
2022/07/03 11:29:51;;;;;;;;;;;26.80;37.50;;;;;;1603212;72;641;-63
2022/07/03 11:31:53;;;;;;;;;;;26.80;38.30;;;;;;1597465;72;1129;-66
2022/07/03 11:33:56;;;;;;;;;;;26.90;38.30;;;;;;1615555;72;778;-65
2022/07/03 11:35:58;;;;;;;;;;;26.90;38.20;;;;;;1599787;72;1944;-64
2022/07/03 11:38:00;;;;;;;;;;;26.90;38.10;;;;;;1611194;72;1217;-63
2022/07/03 11:40:06;;;;;;;;;;;26.90;38.20;;;;;;1605291;72;769;-62
2022/07/03 11:42:07;;;;;;;;;;;26.90;38.30;;;;;;1610140;72;772;-63
2022/07/03 11:44:10;;;;;;;;;;;26.90;38.30;;;;;;1599122;72;730;-62
2022/07/03 11:46:12;;;;;;;;;;;26.90;38.00;;;;;;1593842;72;664;-62
2022/07/03 11:48:15;;;;;;;;;;;26.90;38.50;;;;;;1599200;72;1176;-63
2022/07/03 11:50:16;;;;;;;;;;;26.90;38.40;;;;;;1617766;72;834;-64
2022/07/03 11:52:20;;;;;;;;;;;26.90;38.30;;;;;;1591996;72;746;-63
2022/07/03 11:54:22;;;;;;;;;;;26.90;38.10;;;;;;1600246;72;1937;-62
2022/07/03 11:56:24;;;;;;;;;;;26.90;38.40;;;;;;1597026;72;1925;-63
2022/07/03 11:58:26;;;;;;;;;;;26.90;38.20;;;;;;1595107;72;1139;-63
2022/07/03 12:00:29;;;;;;;;;;;26.90;37.80;;;;;;1615287;72;763;-63
2022/07/03 12:02:31;;;;;;;;;;;26.90;38.40;;;;;;1591513;72;686;-66
2022/07/03 12:04:33;;;;;;;;;;;26.90;38.40;;;;;;1600912;72;708;-64
2022/07/03 12:06:37;;;;;;;;;;;26.90;38.40;;;;;;1595137;72;695;-63
2022/07/03 12:08:42;;;;;;;;;;;26.90;38.40;;;;;;1608633;72;1150;-63
2022/07/03 12:10:42;;;;;;;;;;;26.80;38.40;;;;;;1598579;72;1651;-66
2022/07/03 12:12:44;;;;;;;;;;;26.90;38.50;;;;;;1616169;72;684;-62
2022/07/03 12:14:46;;;;;;;;;;;26.90;38.50;;;;;;1598131;72;765;-62
2022/07/03 12:16:48;;;;;;;;;;;26.90;38.40;;;;;;1607479;72;1930;-63
2022/07/03 12:18:51;;;;;;;;;;;27.00;39.00;;;;;;1599493;72;1142;-65
2022/07/03 12:20:53;;;;;;;;;;;26.90;38.30;;;;;;1593140;72;693;-67
2022/07/03 12:22:55;;;;;;;;;;;26.90;38.50;;;;;;1621393;72;734;-63
2022/07/03 12:24:58;;;;;;;;;;;26.90;38.50;;;;;;1608386;72;676;-65
2022/07/03 12:27:01;;;;;;;;;;;26.90;38.40;;;;;;1599532;72;1064;-65